Cecil, Wisconsin
Current Conditions -  °F | °C
As of 1:35 AM on Wednesday 22 Oct 2014 (Local Time) from KEZS Reporting Station
Clear Clear  
Wind Chill: 33°   Ceiling: Unl
Heat Index: 37°   Visibility: 10mi
Dew Point: 33°   Wind: 6mph
Humidity: 83%   Direction: 40°NE
Pressure: 30.32"   Gusts: NA
Location:  44.81°N, 88.45°W
Report Text: KEZS 220635Z AUTO 04005KT 10SM CLR 03/00 A3032 RMK AO2 T00300003
Loading
Personal Weather Stations






























Interactive Weather Map New forecast layout! Learn more

10-Day Weather Forecast

Advertisements
Track Severe Weather on mobile